CZE weather

José Leonardo Chirinos Airport
Coro, Falcon, Venezuela

Public forecast

Using degrees Celsius for public forecast. Weather courtesy of forecast.io.

Current aviation weather report (METAR) for José Leonardo Chirinos Airport

Report is more than 6 hours old.

Retrieved 2019/12/06 23:00 UTC (8 months ago):

SVCR 062300Z ZNIL

Closest aviation forecast (TAF) to José Leonardo Chirinos Airport

Closest forecast is Josefa Camejo International Airport, 35.3 nm (65.4 km) NW. Retrieved 2020/08/07 12:03 UTC (5 minutes ago):

TAF TAF SVJC 071000Z 0712/0812 17009KT 9999 SCT016 TX34/0619Z TN24/0609Z BECMG 0712/0716 09010KT 9000 -DZ BKN016